Alsen, South Dakota
Current Conditions -  °F | °C
As of 8:15 AM on Thursday 30 Oct 2014 (Local Time) from KYKN Reporting Station
Clear Clear  
Wind Chill: 34°   Ceiling: Unl
Heat Index: 41°   Visibility: 10mi
Dew Point: 34°   Wind: 12mph
Humidity: 76%   Direction: 290°WNW
Pressure: 30.05"   Gusts: NA
Location:  43.1048°N, 96.7944°W
Report Text: KYKN 301315Z AUTO 29010KT 10SM CLR 05/01 A3005 RMK AO1
Loading
Personal Weather Stations






























Interactive Weather Map New forecast layout! Learn more

10-Day Weather Forecast

Advertisements
Track Severe Weather on mobile